Time;durP1;ratioP1;P1;durP2;ratioP2;P2;SDS_P1;SDS_P2;PMS_P1;PMS_P2;Temp;Humidity;BMP_temperature;BMP_pressure;BME280_temperature;BME280_humidity;BME280_pressure;Samples;Min_cycle;Max_cycle;Signal;HPM_P1;HPM_P2
2021/10/15 00:00:26;;;;;;;;;;;;;;;7.40;93.27;100347.25;5091174;28;20444;-19
2021/10/15 00:02:51;;;;;;;;;;;;;;;7.58;92.94;100344.13;5093346;28;19912;-18
2021/10/15 00:05:16;;;;;;;;;;;;;;;7.50;93.46;100336.28;5093342;28;19923;-18
2021/10/15 00:07:42;;;;;;;;;;;;;;;7.31;93.52;100343.09;5093309;28;19923;-19
2021/10/15 00:10:07;;;;;;;;;;;;;;;7.21;94.64;100344.25;5093405;28;19923;-18
2021/10/15 00:12:33;;;;;;;;;;;;;;;7.24;94.43;100349.16;5093356;28;19923;-18
2021/10/15 00:14:58;;;;;;;;;;;;;;;7.30;94.32;100341.47;5093149;28;19920;-19
2021/10/15 00:17:24;;;;;;;;;;;;;;;7.19;94.75;100338.31;5093108;28;19916;-18
2021/10/15 00:19:49;;;;;;;;;;;;;;;7.13;95.02;100336.41;5093083;28;19969;-18
2021/10/15 00:22:14;;;;;;;;;;;;;;;7.07;95.36;100334.50;5092991;28;19912;-18
2021/10/15 00:24:39;;;;;;;;;;;;;;;7.08;95.83;100340.63;5093055;28;19923;-20
2021/10/15 00:27:05;;;;;;;;;;;;;;;7.02;96.19;100339.56;5092800;28;20376;-19
2021/10/15 00:29:30;;;;;;;;;;;;;;;7.19;95.42;100340.13;5093124;28;20007;-19
2021/10/15 00:31:55;;;;;;;;;;;;;;;7.21;95.40;100335.44;5093124;28;19916;-20
2021/10/15 00:34:21;;;;;;;;;;;;;;;7.36;94.90;100330.09;5093024;28;20678;-19
2021/10/15 00:36:46;;;;;;;;;;;;;;;7.56;94.23;100328.41;5092789;28;20295;-19
2021/10/15 00:39:11;;;;;;;;;;;;;;;7.44;93.84;100324.63;5092939;28;20364;-18
2021/10/15 00:41:37;;;;;;;;;;;;;;;7.51;93.74;100336.13;5092737;28;19989;-18
2021/10/15 00:44:06;;;;;;;;;;;;;;;7.52;93.57;100335.13;5092709;28;19915;-19
2021/10/15 00:46:32;;;;;;;;;;;;;;;7.28;94.61;100332.88;5092626;28;19912;-19
2021/10/15 00:48:57;;;;;;;;;;;;;;;7.26;94.65;100329.59;5092481;28;20037;-19
2021/10/15 00:51:23;;;;;;;;;;;;;;;7.31;94.91;100327.97;5092687;28;19919;-19
2021/10/15 00:53:49;;;;;;;;;;;;;;;7.52;94.14;100319.19;5092457;28;19912;-18
2021/10/15 00:56:14;;;;;;;;;;;;;;;7.43;94.11;100312.38;5092458;28;19923;-19
2021/10/15 00:58:39;;;;;;;;;;;;;;;7.46;94.20;100309.34;5092470;28;19916;-18
2021/10/15 01:01:04;;;;;;;;;;;;;;;7.43;94.29;100320.34;5092692;28;19912;-18
2021/10/15 01:03:30;;;;;;;;;;;;;;;7.49;93.89;100318.75;5092572;28;20414;-18
2021/10/15 01:05:55;;;;;;;;;;;;;;;7.65;93.04;100303.34;5092324;28;19919;-19
2021/10/15 01:08:20;;;;;;;;;;;;;;;7.59;93.34;100309.44;5092141;28;19919;-20
2021/10/15 01:10:46;;;;;;;;;;;;;;;7.81;92.61;100310.19;5092794;28;20470;-18
2021/10/15 01:13:11;;;;;;;;;;;;;;;7.91;91.20;100314.34;5091032;28;19915;-19
2021/10/15 01:15:36;;;;;;;;;;;;;;;7.78;91.59;100312.41;5092087;28;19922;-19
2021/10/15 01:18:01;;;;;;;;;;;;;;;7.54;92.95;100306.56;5092185;28;19916;-19
2021/10/15 01:20:27;;;;;;;;;;;;;;;7.48;93.63;100302.00;5090725;28;20453;-19
2021/10/15 01:22:52;;;;;;;;;;;;;;;7.44;93.64;100295.44;5091699;28;19912;-18
2021/10/15 01:25:17;;;;;;;;;;;;;;;7.52;94.04;100297.97;5091894;28;19912;-18
2021/10/15 01:27:43;;;;;;;;;;;;;;;7.51;94.03;100291.00;5073681;28;19963;-18
2021/10/15 01:30:10;;;;;;;;;;;;;;;7.70;93.16;100301.94;5092408;28;19918;-19
2021/10/15 01:32:35;;;;;;;;;;;;;;;7.64;92.98;100291.09;5091760;28;19923;-19
2021/10/15 01:35:00;;;;;;;;;;;;;;;7.64;93.46;100296.41;5091519;28;19920;-19
2021/10/15 01:37:26;;;;;;;;;;;;;;;7.59;93.56;100304.13;5091837;28;19962;-19
2021/10/15 01:39:51;;;;;;;;;;;;;;;7.50;93.72;100289.38;5091352;28;19919;-19
2021/10/15 01:45:00;;;;;;;;;;;;;;;7.56;93.65;100309.84;5091370;28;20071;-19
2021/10/15 01:47:25;;;;;;;;;;;;;;;7.67;93.73;100310.31;5091356;28;20037;-19
2021/10/15 01:49:51;;;;;;;;;;;;;;;7.64;93.54;100306.19;5091568;28;19919;-18
2021/10/15 01:52:16;;;;;;;;;;;;;;;7.55;94.33;100289.59;5091338;28;19912;-18
2021/10/15 01:54:41;;;;;;;;;;;;;;;7.47;94.28;100291.59;5091372;28;19912;-18
2021/10/15 01:57:07;;;;;;;;;;;;;;;7.53;94.13;100278.34;5091457;28;19920;-20
2021/10/15 01:59:32;;;;;;;;;;;;;;;8.08;92.90;100270.50;5091211;28;20354;-18
2021/10/15 02:01:59;;;;;;;;;;;;;;;8.05;91.26;100276.22;5091118;28;19916;-19
2021/10/15 02:04:24;;;;;;;;;;;;;;;7.92;91.77;100279.63;5091021;28;19915;-19
2021/10/15 02:06:49;;;;;;;;;;;;;;;8.04;90.88;100286.00;5091117;28;19922;-19
2021/10/15 02:09:14;;;;;;;;;;;;;;;8.04;90.68;100280.69;5091220;28;20327;-19
2021/10/15 02:11:40;;;;;;;;;;;;;;;7.83;91.85;100278.16;5091288;28;20018;-19
2021/10/15 02:14:05;;;;;;;;;;;;;;;7.82;92.10;100279.16;5091018;28;19916;-19
2021/10/15 02:16:30;;;;;;;;;;;;;;;7.83;92.06;100283.47;5090768;28;19961;-19
2021/10/15 02:18:56;;;;;;;;;;;;;;;8.00;91.64;100274.13;5090643;28;20003;-18
2021/10/15 02:21:21;;;;;;;;;;;;;;;8.05;91.45;100269.06;5090846;28;19912;-19
2021/10/15 02:23:47;;;;;;;;;;;;;;;8.01;91.47;100278.44;5090897;28;19935;-18
2021/10/15 02:26:18;;;;;;;;;;;;;;;8.03;91.24;100284.38;5091063;28;19919;-19
2021/10/15 02:28:44;;;;;;;;;;;;;;;7.92;91.93;100290.25;5090683;28;20361;-19
2021/10/15 02:31:09;;;;;;;;;;;;;;;7.82;92.34;100284.47;5090186;28;20023;-19
2021/10/15 02:33:34;;;;;;;;;;;;;;;7.86;92.10;100285.72;5090492;28;19916;-18
2021/10/15 02:35:59;;;;;;;;;;;;;;;7.77;93.03;100279.75;5090532;28;20508;-18
2021/10/15 02:38:25;;;;;;;;;;;;;;;7.80;92.50;100278.53;5090624;28;19912;-19
2021/10/15 02:40:50;;;;;;;;;;;;;;;7.66;93.22;100277.63;5090151;28;19916;-19
2021/10/15 02:43:15;;;;;;;;;;;;;;;7.71;92.75;100279.72;5090376;28;19916;-19
2021/10/15 02:45:41;;;;;;;;;;;;;;;7.76;92.83;100274.63;5090153;28;20440;-18
2021/10/15 02:48:06;;;;;;;;;;;;;;;7.83;92.56;100283.47;5090441;28;19923;-19
2021/10/15 02:50:31;;;;;;;;;;;;;;;7.92;92.14;100271.66;5072474;28;20668;-19
2021/10/15 02:52:57;;;;;;;;;;;;;;;7.93;92.00;100262.69;5090326;28;20757;-19
2021/10/15 02:55:22;;;;;;;;;;;;;;;7.90;92.31;100252.44;5089962;28;19938;-19
2021/10/15 02:57:47;;;;;;;;;;;;;;;7.94;92.44;100253.69;5090175;28;19912;-19
2021/10/15 03:00:13;;;;;;;;;;;;;;;8.16;90.97;100256.25;5090216;28;20303;-19
2021/10/15 03:02:38;;;;;;;;;;;;;;;7.98;91.69;100264.75;5090014;28;19959;-19
2021/10/15 03:05:04;;;;;;;;;;;;;;;8.07;91.72;100268.88;5089770;28;20341;-18
2021/10/15 03:07:29;;;;;;;;;;;;;;;7.99;91.60;100269.88;5090019;28;20032;-18
2021/10/15 03:09:54;;;;;;;;;;;;;;;7.85;91.97;100276.13;5090132;28;19912;-19
2021/10/15 03:12:19;;;;;;;;;;;;;;;8.03;91.84;100276.41;5090076;28;19920;-19
2021/10/15 03:14:45;;;;;;;;;;;;;;;7.97;92.29;100268.44;5089835;28;19938;-19
2021/10/15 03:17:10;;;;;;;;;;;;;;;7.93;92.33;100268.00;5071361;28;19998;-19
2021/10/15 03:19:35;;;;;;;;;;;;;;;7.86;93.47;100261.81;5089565;28;20295;-20
2021/10/15 03:22:01;;;;;;;;;;;;;;;7.82;93.33;100260.56;5089935;28;20379;-18
2021/10/15 03:24:26;;;;;;;;;;;;;;;7.90;92.97;100271.03;5089822;28;19912;-20
2021/10/15 03:26:51;;;;;;;;;;;;;;;7.83;93.09;100259.56;5089898;28;20356;-19
2021/10/15 03:29:17;;;;;;;;;;;;;;;7.94;92.40;100256.34;5089214;28;19912;-19
2021/10/15 03:31:42;;;;;;;;;;;;;;;7.84;93.05;100258.53;5089624;28;20351;-19
2021/10/15 03:34:07;;;;;;;;;;;;;;;7.67;93.77;100258.03;5089187;28;20402;-18
2021/10/15 03:36:33;;;;;;;;;;;;;;;7.53;94.32;100257.13;5089444;28;20060;-19
2021/10/15 03:38:58;;;;;;;;;;;;;;;7.69;94.42;100260.50;5089380;28;19915;-18
2021/10/15 03:41:23;;;;;;;;;;;;;;;7.87;93.38;100257.31;5089432;28;19915;-19
2021/10/15 03:43:48;;;;;;;;;;;;;;;7.77;93.96;100241.75;5089461;28;19988;-19
2021/10/15 03:46:14;;;;;;;;;;;;;;;7.96;93.01;100230.41;5089281;28;19960;-19
2021/10/15 03:48:39;;;;;;;;;;;;;;;7.96;93.15;100238.38;5089370;28;20296;-19
2021/10/15 03:51:04;;;;;;;;;;;;;;;8.09;92.23;100239.44;5071219;28;19923;-20
2021/10/15 03:53:30;;;;;;;;;;;;;;;8.05;91.93;100245.16;5089570;28;20435;-18
2021/10/15 03:55:55;;;;;;;;;;;;;;;8.02;91.99;100237.59;5089093;28;19916;-18
2021/10/15 03:58:20;;;;;;;;;;;;;;;8.01;92.79;100238.63;5089323;28;19916;-18
2021/10/15 04:00:45;;;;;;;;;;;;;;;7.85;92.80;100238.94;5071196;28;19923;-19
2021/10/15 04:03:11;;;;;;;;;;;;;;;7.92;92.91;100238.97;5088992;28;20320;-19
2021/10/15 04:05:36;;;;;;;;;;;;;;;7.99;92.54;100234.53;5089485;28;20014;-18
2021/10/15 04:08:01;;;;;;;;;;;;;;;7.97;92.86;100237.38;5089297;28;19912;-19
2021/10/15 04:10:27;;;;;;;;;;;;;;;8.25;92.01;100231.97;5089449;28;19962;-19
2021/10/15 04:12:52;;;;;;;;;;;;;;;8.10;91.94;100227.81;5088969;28;19912;-19
2021/10/15 04:15:17;;;;;;;;;;;;;;;7.83;93.01;100235.66;5089228;28;19911;-19
2021/10/15 04:17:42;;;;;;;;;;;;;;;7.99;93.04;100235.34;5089499;28;20300;-19
2021/10/15 04:20:08;;;;;;;;;;;;;;;7.98;92.51;100235.53;5089177;28;19959;-19
2021/10/15 04:22:33;;;;;;;;;;;;;;;8.07;91.85;100234.34;5089462;28;19912;-19
2021/10/15 04:24:59;;;;;;;;;;;;;;;8.07;92.26;100233.50;5088957;28;19999;-18
2021/10/15 04:27:24;;;;;;;;;;;;;;;8.26;92.10;100230.13;5089070;28;19918;-19
2021/10/15 04:29:49;;;;;;;;;;;;;;;8.40;90.78;100225.66;5089016;28;19959;-19
2021/10/15 04:32:14;;;;;;;;;;;;;;;8.46;90.06;100227.56;5088709;28;20073;-19
2021/10/15 04:34:40;;;;;;;;;;;;;;;8.41;90.15;100233.44;5088946;28;20395;-19
2021/10/15 04:37:05;;;;;;;;;;;;;;;8.28;90.79;100238.72;5088828;28;20303;-19
2021/10/15 04:39:30;;;;;;;;;;;;;;;8.08;91.98;100237.81;5088945;28;19970;-19
2021/10/15 04:41:56;;;;;;;;;;;;;;;8.08;92.13;100227.19;5089200;28;19916;-19
2021/10/15 04:44:21;;;;;;;;;;;;;;;8.08;92.34;100229.84;5088855;28;20387;-19
2021/10/15 04:46:46;;;;;;;;;;;;;;;7.97;92.44;100224.09;5089824;28;19915;-19
2021/10/15 04:49:11;;;;;;;;;;;;;;;8.12;92.52;100233.75;5091985;28;20336;-19
2021/10/15 04:51:37;;;;;;;;;;;;;;;7.87;92.95;100238.72;5092899;28;19916;-19
2021/10/15 04:54:02;;;;;;;;;;;;;;;7.71;94.14;100231.94;5092669;28;19975;-18
2021/10/15 04:56:29;;;;;;;;;;;;;;;7.92;93.90;100238.97;5092373;28;19916;-19
2021/10/15 04:58:54;;;;;;;;;;;;;;;7.88;93.73;100227.91;5092133;28;19969;-20
2021/10/15 05:01:19;;;;;;;;;;;;;;;8.07;93.09;100231.69;5092395;28;19920;-19
2021/10/15 05:03:45;;;;;;;;;;;;;;;8.01;93.25;100228.00;5092903;28;19935;-19
2021/10/15 05:06:10;;;;;;;;;;;;;;;7.94;93.72;100234.28;5092422;28;19912;-18
2021/10/15 05:08:49;;;;;;;;;;;;;;;8.09;93.30;100236.78;5092268;28;19995;-18
2021/10/15 05:11:14;;;;;;;;;;;;;;;8.13;92.84;100256.63;5092160;28;19919;-20
2021/10/15 05:13:40;;;;;;;;;;;;;;;7.95;93.60;100257.19;5092309;28;20003;-19
2021/10/15 05:16:05;;;;;;;;;;;;;;;8.16;93.16;100261.56;5092243;28;19919;-19
2021/10/15 05:18:30;;;;;;;;;;;;;;;7.96;93.64;100262.28;5073819;28;19958;-19
2021/10/15 05:20:56;;;;;;;;;;;;;;;7.87;94.60;100247.53;5091741;28;20019;-19
2021/10/15 05:23:21;;;;;;;;;;;;;;;8.02;93.56;100242.09;5091943;28;19919;-19
2021/10/15 05:25:46;;;;;;;;;;;;;;;8.00;93.57;100246.78;5092259;28;19919;-18
2021/10/15 05:28:11;;;;;;;;;;;;;;;7.88;94.44;100249.16;5091724;28;20003;-19
2021/10/15 05:30:37;;;;;;;;;;;;;;;7.89;94.81;100250.81;5091799;28;19972;-18
2021/10/15 05:33:02;;;;;;;;;;;;;;;8.04;94.28;100261.28;5091677;28;19919;-19
2021/10/15 05:35:27;;;;;;;;;;;;;;;8.00;94.00;100252.91;5091822;28;19920;-18
2021/10/15 05:37:53;;;;;;;;;;;;;;;8.14;93.55;100250.31;5091763;28;20356;-19
2021/10/15 05:40:18;;;;;;;;;;;;;;;8.19;93.46;100239.91;5091582;28;19935;-19
2021/10/15 05:42:44;;;;;;;;;;;;;;;8.09;93.59;100234.13;5091652;28;19912;-19
2021/10/15 05:45:09;;;;;;;;;;;;;;;8.08;93.94;100243.13;5091726;28;20244;-18
2021/10/15 05:47:34;;;;;;;;;;;;;;;8.14;94.07;100243.16;5091311;28;20015;-19
2021/10/15 05:50:00;;;;;;;;;;;;;;;8.25;93.30;100244.41;5091916;28;19988;-18
2021/10/15 05:52:40;;;;;;;;;;;;;;;8.13;94.00;100246.00;5091418;28;20368;-19
2021/10/15 05:55:20;;;;;;;;;;;;;;;8.30;93.64;100244.66;5090889;28;19916;-18
2021/10/15 06:00:26;;;;;;;;;;;;;;;8.52;91.52;100236.53;5091600;28;20395;-18
2021/10/15 06:02:52;;;;;;;;;;;;;;;8.68;91.07;100238.00;5090912;28;20345;-19
2021/10/15 06:15:42;;;;;;;;;;;;;;;8.36;93.25;100235.88;5091003;28;19941;-19
2021/10/15 06:18:16;;;;;;;;;;;;;;;8.41;92.69;100243.28;5090928;28;19920;-19
2021/10/15 06:20:41;;;;;;;;;;;;;;;8.25;93.73;100239.09;5090978;28;20367;-18
2021/10/15 06:23:07;;;;;;;;;;;;;;;8.32;93.69;100234.63;5090759;28;19919;-19
2021/10/15 06:25:32;;;;;;;;;;;;;;;8.63;91.75;100230.66;5090731;28;19916;-18
2021/10/15 06:27:59;;;;;;;;;;;;;;;8.57;92.30;100226.16;5090783;28;19919;-18
2021/10/15 06:30:25;;;;;;;;;;;;;;;8.80;90.91;100242.53;5090617;28;20449;-19
2021/10/15 06:32:50;;;;;;;;;;;;;;;8.81;90.66;100238.84;5090520;28;19924;-19
2021/10/15 06:35:15;;;;;;;;;;;;;;;8.57;92.14;100242.09;5090791;28;19962;-19
2021/10/15 06:37:40;;;;;;;;;;;;;;;8.62;91.96;100231.66;5090613;28;19938;-19
2021/10/15 06:40:06;;;;;;;;;;;;;;;8.58;92.43;100233.94;5090731;28;20034;-18
2021/10/15 06:42:31;;;;;;;;;;;;;;;8.42;92.65;100229.78;5090482;28;19916;-19
2021/10/15 06:44:57;;;;;;;;;;;;;;;8.33;93.59;100238.09;5090128;28;19920;-19
2021/10/15 06:47:22;;;;;;;;;;;;;;;8.30;94.17;100241.19;5090198;28;19919;-19
2021/10/15 06:49:47;;;;;;;;;;;;;;;8.24;94.31;100243.59;5090576;28;20417;-18
2021/10/15 06:52:12;;;;;;;;;;;;;;;8.29;94.79;100244.84;5090412;28;19912;-18
2021/10/15 06:54:38;;;;;;;;;;;;;;;7.93;95.89;100241.44;5090108;28;19961;-18
2021/10/15 06:57:03;;;;;;;;;;;;;;;8.04;96.83;100250.66;5089878;28;19927;-18
2021/10/15 06:59:28;;;;;;;;;;;;;;;8.35;95.32;100249.34;5090335;28;20291;-19
2021/10/15 07:01:54;;;;;;;;;;;;;;;8.48;94.35;100251.25;5090439;28;19912;-19
2021/10/15 07:04:20;;;;;;;;;;;;;;;8.54;93.47;100248.63;5090021;28;19968;-19
2021/10/15 07:06:45;;;;;;;;;;;;;;;8.60;93.47;100262.94;5090184;28;19923;-19
2021/10/15 07:09:10;;;;;;;;;;;;;;;8.55;93.34;100268.06;5089524;28;20418;-19
2021/10/15 07:11:38;;;;;;;;;;;;;;;8.70;93.26;100262.56;5089754;28;19912;-19
2021/10/15 07:14:04;;;;;;;;;;;;;;;8.58;93.56;100251.69;5090273;28;19958;-19
2021/10/15 07:16:29;;;;;;;;;;;;;;;8.52;93.68;100255.16;5089736;28;19951;-19
2021/10/15 07:18:54;;;;;;;;;;;;;;;8.67;93.23;100262.97;5089576;28;19916;-19
2021/10/15 07:21:19;;;;;;;;;;;;;;;8.56;93.45;100269.69;5089902;28;20485;-18
2021/10/15 07:23:45;;;;;;;;;;;;;;;8.38;94.91;100268.38;5089832;28;19912;-19
2021/10/15 07:26:10;;;;;;;;;;;;;;;8.35;95.57;100270.63;5089801;28;19951;-18
2021/10/15 07:28:36;;;;;;;;;;;;;;;8.37;95.76;100271.22;5089553;28;19974;-18
2021/10/15 07:31:01;;;;;;;;;;;;;;;8.26;96.13;100267.31;5089238;28;19912;-19
2021/10/15 07:33:26;;;;;;;;;;;;;;;8.30;96.63;100257.94;5089458;28;19939;-19
2021/10/15 07:35:51;;;;;;;;;;;;;;;8.25;96.37;100249.72;5089382;28;19985;-19
2021/10/15 07:38:17;;;;;;;;;;;;;;;8.41;96.06;100244.09;5089837;28;20006;-19
2021/10/15 07:40:42;;;;;;;;;;;;;;;8.58;94.79;100257.00;5089620;28;19915;-19
2021/10/15 07:43:07;;;;;;;;;;;;;;;8.51;94.87;100257.00;5089328;28;20049;-19
2021/10/15 07:45:33;;;;;;;;;;;;;;;8.50;94.53;100246.56;5089527;28;19912;-19
2021/10/15 07:47:58;;;;;;;;;;;;;;;8.59;94.12;100253.34;5089650;28;19916;-19
2021/10/15 07:50:23;;;;;;;;;;;;;;;8.44;94.91;100246.34;5089674;28;19919;-19
2021/10/15 07:52:49;;;;;;;;;;;;;;;8.56;94.92;100251.06;5088992;28;20277;-19
2021/10/15 07:55:14;;;;;;;;;;;;;;;8.50;94.86;100250.06;5089238;28;19916;-19
2021/10/15 07:57:40;;;;;;;;;;;;;;;8.36;95.14;100243.84;5089324;28;19948;-19
2021/10/15 08:00:06;;;;;;;;;;;;;;;8.47;95.96;100237.16;5089319;28;19946;-19
2021/10/15 08:02:31;;;;;;;;;;;;;;;8.82;94.09;100247.66;5089094;28;20006;-18
2021/10/15 08:04:56;;;;;;;;;;;;;;;8.92;92.92;100239.28;5089267;28;20265;-19
2021/10/15 08:07:22;;;;;;;;;;;;;;;9.11;92.86;100221.69;5089364;28;19920;-18
2021/10/15 08:09:47;;;;;;;;;;;;;;;9.09;91.78;100232.50;5089398;28;19916;-19
2021/10/15 08:12:12;;;;;;;;;;;;;;;9.44;90.72;100219.00;5088922;28;19916;-18
2021/10/15 08:14:38;;;;;;;;;;;;;;;9.55;89.12;100213.03;5089447;28;19919;-20
2021/10/15 08:17:03;;;;;;;;;;;;;;;9.28;89.96;100211.44;5088969;28;19915;-19
2021/10/15 08:19:28;;;;;;;;;;;;;;;9.01;91.68;100214.09;5089051;28;19912;-19
2021/10/15 08:21:54;;;;;;;;;;;;;;;9.06;92.01;100214.31;5091699;28;19999;-19
2021/10/15 08:24:19;;;;;;;;;;;;;;;9.10;91.73;100210.22;5092891;28;19923;-19
2021/10/15 08:26:44;;;;;;;;;;;;;;;9.17;91.29;100210.22;5093248;28;19912;-19
2021/10/15 08:29:10;;;;;;;;;;;;;;;9.52;90.43;100212.63;5092510;28;19916;-19
2021/10/15 08:31:35;;;;;;;;;;;;;;;9.32;90.33;100215.34;5092437;28;20376;-19
2021/10/15 08:34:02;;;;;;;;;;;;;;;9.35;90.33;100223.69;5092814;28;19958;-20
2021/10/15 08:36:27;;;;;;;;;;;;;;;9.58;89.06;100228.59;5092936;28;19931;-20
2021/10/15 08:38:53;;;;;;;;;;;;;;;9.55;89.97;100223.69;5092475;28;20280;-19
2021/10/15 08:41:23;;;;;;;;;;;;;;;9.42;90.87;100234.38;5092564;28;19908;-20
2021/10/15 08:43:48;;;;;;;;;;;;;;;9.80;89.56;100237.13;5092723;28;19919;-20
2021/10/15 08:46:13;;;;;;;;;;;;;;;9.84;88.75;100243.66;5092576;28;19911;-19
2021/10/15 08:48:39;;;;;;;;;;;;;;;9.69;88.93;100228.97;5092575;28;20011;-20
2021/10/15 08:51:04;;;;;;;;;;;;;;;9.72;88.58;100223.22;5092205;28;19965;-20
2021/10/15 08:53:30;;;;;;;;;;;;;;;9.39;90.67;100218.78;5092412;28;19953;-20
2021/10/15 08:55:55;;;;;;;;;;;;;;;9.39;91.27;100218.78;5092360;28;19924;-19
2021/10/15 08:58:20;;;;;;;;;;;;;;;9.38;91.98;100223.31;5092520;28;19920;-18
2021/10/15 09:00:46;;;;;;;;;;;;;;;9.17;92.32;100220.84;5092313;28;20316;-19
2021/10/15 09:03:14;;;;;;;;;;;;;;;9.07;92.71;100204.50;5073932;28;19961;-18
2021/10/15 09:05:40;;;;;;;;;;;;;;;8.94;93.77;100223.94;5092230;28;19916;-18
2021/10/15 09:08:06;;;;;;;;;;;;;;;9.19;93.41;100214.31;5092263;28;19935;-19
2021/10/15 09:10:31;;;;;;;;;;;;;;;9.38;92.12;100222.50;5092571;28;20003;-18
2021/10/15 09:12:57;;;;;;;;;;;;;;;9.36;92.60;100228.00;5091842;28;19912;-19
2021/10/15 09:15:32;;;;;;;;;;;;;;;9.42;92.34;100229.03;5091990;28;19916;-19
2021/10/15 09:17:57;;;;;;;;;;;;;;;9.50;90.71;100226.16;5092295;28;20450;-19
2021/10/15 09:20:29;;;;;;;;;;;;;;;9.38;91.72;100217.97;5092181;28;19937;-18
2021/10/15 09:22:55;;;;;;;;;;;;;;;9.44;91.61;100221.66;5092017;28;19912;-19
2021/10/15 09:25:20;;;;;;;;;;;;;;;9.44;91.74;100219.00;5091961;28;19923;-19
2021/10/15 09:27:46;;;;;;;;;;;;;;;9.50;91.76;100226.16;5092152;28;20287;-18
2021/10/15 09:30:11;;;;;;;;;;;;;;;9.49;91.29;100226.34;5092209;28;20651;-19
2021/10/15 09:32:40;;;;;;;;;;;;;;;9.54;91.64;100227.38;5090901;28;19916;-18
2021/10/15 09:35:06;;;;;;;;;;;;;;;9.17;93.14;100219.00;5091741;28;19970;-19
2021/10/15 09:37:32;;;;;;;;;;;;;;;9.23;93.43;100222.69;5091891;28;20379;-18
2021/10/15 09:40:05;;;;;;;;;;;;;;;9.22;93.29;100218.41;5091684;28;19916;-18
2021/10/15 09:42:30;;;;;;;;;;;;;;;9.23;93.72;100225.34;5091560;28;19911;-19
2021/10/15 09:45:01;;;;;;;;;;;;;;;9.30;93.47;100236.00;5091410;28;19919;-20
2021/10/15 09:47:28;;;;;;;;;;;;;;;9.28;93.52;100236.22;5091665;28;20286;-19
2021/10/15 09:49:54;;;;;;;;;;;;;;;9.21;93.24;100238.88;5091659;28;19967;-19
2021/10/15 09:52:23;;;;;;;;;;;;;;;9.12;93.92;100242.75;5091378;28;19923;-19
2021/10/15 09:54:55;;;;;;;;;;;;;;;9.07;95.37;100252.38;5091004;28;20380;-20
2021/10/15 09:57:31;;;;;;;;;;;;;;;8.93;95.98;100256.84;5091113;28;19920;-18
2021/10/15 09:59:57;;;;;;;;;;;;;;;8.76;96.46;100270.53;5091488;28;19973;-19
2021/10/15 10:02:22;;;;;;;;;;;;;;;8.69;97.89;100272.38;5091200;28;19919;-19
2021/10/15 10:04:47;;;;;;;;;;;;;;;8.76;96.70;100262.56;5091233;28;20454;-19
2021/10/15 10:07:13;;;;;;;;;;;;;;;8.87;97.12;100261.16;5090921;28;19912;-19
2021/10/15 10:09:38;;;;;;;;;;;;;;;9.00;96.45;100257.69;5073114;28;19916;-19
2021/10/15 10:12:03;;;;;;;;;;;;;;;9.07;95.62;100242.53;5072948;28;19969;-19
2021/10/15 10:14:29;;;;;;;;;;;;;;;9.13;94.65;100241.72;5072876;28;20387;-18
2021/10/15 10:16:54;;;;;;;;;;;;;;;8.97;95.58;100210.22;5090550;28;19912;-19
2021/10/15 10:19:20;;;;;;;;;;;;;;;9.11;94.80;100198.53;5090873;28;19916;-19
2021/10/15 10:21:46;;;;;;;;;;;;;;;9.16;94.81;100192.63;5072920;28;19923;-19
2021/10/15 10:24:12;;;;;;;;;;;;;;;9.40;94.23;100193.81;5072691;28;20314;-18
2021/10/15 10:26:44;;;;;;;;;;;;;;;9.27;95.32;100196.50;5072868;28;19916;-19
2021/10/15 10:29:10;;;;;;;;;;;;;;;9.54;93.55;100191.94;5090549;28;20403;-18
2021/10/15 10:31:35;;;;;;;;;;;;;;;9.74;92.10;100190.03;5090627;28;19934;-19
2021/10/15 10:34:04;;;;;;;;;;;;;;;9.85;91.86;100191.22;5090829;28;20022;-19
2021/10/15 10:36:30;;;;;;;;;;;;;;;10.11;91.46;100189.47;5090561;28;19912;-19
2021/10/15 10:38:56;;;;;;;;;;;;;;;10.16;90.44;100187.00;5090057;28;20385;-20
2021/10/15 10:41:22;;;;;;;;;;;;;;;10.10;90.07;100182.53;5090199;28;19912;-20
2021/10/15 10:43:47;;;;;;;;;;;;;;;10.35;89.16;100179.94;5090340;28;19911;-20
2021/10/15 10:46:13;;;;;;;;;;;;;;;10.52;88.90;100164.25;5090299;28;19967;-21
2021/10/15 10:48:50;;;;;;;;;;;;;;;10.14;89.24;100165.88;5090292;28;19919;-20
2021/10/15 10:51:16;;;;;;;;;;;;;;;10.14;90.64;100162.41;5090257;28;20372;-20
2021/10/15 10:54:00;;;;;;;;;;;;;;;10.08;90.35;100169.41;5090291;28;19923;-20
2021/10/15 10:56:44;;;;;;;;;;;;;;;9.81;91.07;100164.19;5090068;28;19920;-20
2021/10/15 10:59:18;;;;;;;;;;;;;;;9.93;91.85;100156.38;5089801;28;20353;-19
2021/10/15 11:01:47;;;;;;;;;;;;;;;9.90;91.50;100162.09;5089993;28;19972;-20
2021/10/15 11:04:31;;;;;;;;;;;;;;;9.98;91.31;100161.84;5090154;28;19986;-20
2021/10/15 11:06:57;;;;;;;;;;;;;;;10.10;90.56;100167.34;5089807;28;19916;-20
2021/10/15 11:09:29;;;;;;;;;;;;;;;10.13;90.79;100150.09;5090077;28;19920;-19
2021/10/15 11:11:55;;;;;;;;;;;;;;;9.98;90.38;100145.88;5089653;28;19923;-20
2021/10/15 11:14:21;;;;;;;;;;;;;;;9.79;91.60;100141.47;5071906;28;19912;-20
2021/10/15 11:16:46;;;;;;;;;;;;;;;10.01;91.13;100137.47;5089698;28;20061;-19
2021/10/15 11:19:16;;;;;;;;;;;;;;;10.13;90.39;100136.78;5089701;28;20010;-19
2021/10/15 11:21:42;;;;;;;;;;;;;;;10.36;89.56;100128.25;5089834;28;19916;-21
2021/10/15 11:24:13;;;;;;;;;;;;;;;10.30;89.35;100139.78;5089923;28;19912;-20
2021/10/15 11:26:38;;;;;;;;;;;;;;;10.36;90.31;100118.41;5089566;28;19919;-20
2021/10/15 11:29:04;;;;;;;;;;;;;;;10.31;89.81;100120.09;5089703;28;19912;-20
2021/10/15 11:31:29;;;;;;;;;;;;;;;10.08;90.99;100101.97;5089593;28;19922;-19
2021/10/15 11:34:06;;;;;;;;;;;;;;;10.09;90.89;100090.28;5089617;28;19916;-19
2021/10/15 11:36:31;;;;;;;;;;;;;;;10.19;90.89;100074.63;5089631;28;19916;-20
2021/10/15 11:38:59;;;;;;;;;;;;;;;10.19;91.07;100059.44;5089116;28;19919;-20
2021/10/15 11:41:25;;;;;;;;;;;;;;;10.42;90.47;100048.25;5089419;28;20032;-20
2021/10/15 11:43:50;;;;;;;;;;;;;;;10.38;89.73;100047.03;5089608;28;19919;-20
2021/10/15 11:46:17;;;;;;;;;;;;;;;10.29;90.58;100032.31;5089495;28;19919;-20
2021/10/15 11:48:48;;;;;;;;;;;;;;;10.30;91.17;100018.00;5089484;28;19923;-20
2021/10/15 11:51:13;;;;;;;;;;;;;;;10.60;91.03;100014.63;5089159;28;20016;-20
2021/10/15 11:53:42;;;;;;;;;;;;;;;10.60;90.53;100006.63;5089150;28;19965;-20
2021/10/15 11:56:12;;;;;;;;;;;;;;;10.38;90.14;100003.56;5092328;28;20268;-19
2021/10/15 11:58:41;;;;;;;;;;;;;;;10.38;90.56;99999.06;5096499;28;20077;-20
2021/10/15 12:01:09;;;;;;;;;;;;;;;10.69;91.02;99988.53;5095838;28;20315;-20
2021/10/15 12:03:40;;;;;;;;;;;;;;;10.81;90.22;99982.22;5096209;28;19923;-20
2021/10/15 12:06:09;;;;;;;;;;;;;;;11.04;88.96;99960.19;5095930;28;19935;-20
2021/10/15 12:08:34;;;;;;;;;;;;;;;11.19;87.91;99951.78;5096052;28;19977;-19
2021/10/15 12:10:59;;;;;;;;;;;;;;;10.91;87.85;99955.03;5095653;28;20368;-19
2021/10/15 12:13:25;;;;;;;;;;;;;;;11.06;88.90;99959.97;5095944;28;20017;-19
2021/10/15 12:15:50;;;;;;;;;;;;;;;10.79;90.12;99962.94;5078004;28;19912;-19
2021/10/15 12:18:16;;;;;;;;;;;;;;;10.84;89.57;99960.41;5095933;28;20311;-21
2021/10/15 12:20:41;;;;;;;;;;;;;;;10.73;90.08;99971.03;5077797;28;20018;-20
2021/10/15 12:23:07;;;;;;;;;;;;;;;10.77;90.12;99975.69;5095703;28;20708;-20
2021/10/15 12:25:32;;;;;;;;;;;;;;;10.59;90.34;99970.34;5095707;28;19920;-19
2021/10/15 12:27:57;;;;;;;;;;;;;;;10.20;92.07;99959.00;5096288;28;20307;-19
2021/10/15 12:30:25;;;;;;;;;;;;;;;10.12;93.29;99956.63;5095760;28;19999;-19
2021/10/15 12:32:50;;;;;;;;;;;;;;;9.88;94.48;99956.41;5095408;28;19919;-20
2021/10/15 12:35:16;;;;;;;;;;;;;;;10.17;94.13;99975.41;5095811;28;19985;-21
2021/10/15 12:37:42;;;;;;;;;;;;;;;10.47;92.72;99977.44;5095643;28;19920;-20
2021/10/15 12:40:08;;;;;;;;;;;;;;;10.23;92.81;99970.03;5095438;28;19912;-20
2021/10/15 12:42:33;;;;;;;;;;;;;;;10.03;94.03;99975.53;5095675;28;19999;-20
2021/10/15 12:45:08;;;;;;;;;;;;;;;10.07;94.49;99970.56;5095828;28;20006;-19
2021/10/15 12:47:33;;;;;;;;;;;;;;;10.02;93.68;99976.56;5095625;28;19911;-20
2021/10/15 12:49:59;;;;;;;;;;;;;;;9.79;95.83;99971.03;5095593;28;19973;-20
2021/10/15 12:52:31;;;;;;;;;;;;;;;10.03;95.07;99974.72;5095474;28;19916;-19
2021/10/15 12:54:56;;;;;;;;;;;;;;;10.13;95.54;99974.22;5095538;28;19915;-19